Time;durP1;ratioP1;P1;durP2;ratioP2;P2;SDS_P1;SDS_P2;PMS_P1;PMS_P2;Temp;Humidity;BMP_temperature;BMP_pressure;BME280_temperature;BME280_humidity;BME280_pressure;Samples;Min_cycle;Max_cycle;Signal;HPM_P1;HPM_P2
2023/10/18 00:01:34;;;;;;;5.93;0.80;;;18.70;67.10;;;;;;5055139;28;20179;-67
2023/10/18 00:04:01;;;;;;;4.20;0.97;;;18.50;64.80;;;;;;5069932;28;20647;-66
2023/10/18 00:06:29;;;;;;;4.53;1.10;;;18.50;64.40;;;;;;5072771;28;20514;-67
2023/10/18 00:09:32;;;;;;;3.67;1.00;;;18.50;63.60;;;;;;5071947;28;20182;-67
2023/10/18 00:11:48;;;;;;;6.50;1.37;;;18.40;64.20;;;;;;5068123;28;20223;-66
2023/10/18 00:14:18;;;;;;;3.97;1.00;;;18.50;64.60;;;;;;5071777;28;20701;-67
2023/10/18 00:16:45;;;;;;;7.70;1.10;;;18.70;63.80;;;;;;5070658;28;20179;-67
2023/10/18 00:19:13;;;;;;;4.93;1.40;;;18.80;63.30;;;;;;5053648;28;20200;-68
2023/10/18 00:21:40;;;;;;;4.97;1.00;;;19.10;63.90;;;;;;5070003;28;20619;-67
2023/10/18 00:24:09;;;;;;;5.47;1.17;;;19.40;62.70;;;;;;5068679;28;20186;-67
2023/10/18 00:26:38;;;;;;;1.87;1.00;;;19.80;61.30;;;;;;5072546;28;20180;-68
2023/10/18 00:29:05;;;;;;;6.10;1.63;;;20.20;58.60;;;;;;5072450;28;21553;-67
2023/10/18 00:31:33;;;;;;;5.67;1.07;;;20.40;58.10;;;;;;5072557;28;20205;-67
2023/10/18 00:34:00;;;;;;;8.23;1.53;;;20.80;58.70;;;;;;5072672;28;20673;-67
2023/10/18 00:36:27;;;;;;;2.47;1.10;;;20.80;57.10;;;;;;5072505;28;20258;-66
2023/10/18 00:38:55;;;;;;;5.80;1.10;;;20.30;56.60;;;;;;5057093;28;20882;-66
2023/10/18 00:41:43;;;;;;;3.57;1.07;;;20.80;56.40;;;;;;5066386;28;20196;-68
2023/10/18 00:44:11;;;;;;;4.43;0.83;;;20.70;55.20;;;;;;5052659;28;20712;-66
2023/10/18 00:46:40;;;;;;;3.50;0.90;;;20.60;55.20;;;;;;5069423;28;20186;-67
2023/10/18 00:49:14;;;;;;;3.67;1.23;;;21.00;54.60;;;;;;5072120;28;20183;-66
2023/10/18 00:51:46;;;;;;;4.80;0.90;;;21.10;54.20;;;;;;5069697;28;20220;-67
2023/10/18 00:54:14;;;;;;;5.63;1.40;;;21.40;53.50;;;;;;5068050;28;20190;-67
2023/10/18 00:56:46;;;;;;;5.27;1.03;;;21.80;52.40;;;;;;5061432;28;20183;-66
2023/10/18 00:59:18;;;;;;;4.30;1.07;;;21.50;51.90;;;;;;5071560;28;20657;-67
2023/10/18 01:01:46;;;;;;;3.97;0.93;;;21.30;53.40;;;;;;5071724;28;20183;-66
2023/10/18 01:04:14;;;;;;;3.77;0.90;;;20.80;52.90;;;;;;5072411;28;20634;-67
2023/10/18 01:06:50;;;;;;;3.43;0.87;;;20.70;53.50;;;;;;5072185;28;20210;-67
2023/10/18 01:09:20;;;;;;;5.87;1.27;;;20.80;54.20;;;;;;5054354;28;20183;-67
2023/10/18 01:11:49;;;;;;;6.07;1.60;;;21.30;52.80;;;;;;5072137;28;20203;-68
2023/10/18 01:14:24;;;;;;;4.27;1.10;;;21.70;51.40;;;;;;5054514;28;20167;-68
2023/10/18 01:16:54;;;;;;;2.33;0.93;;;22.00;49.40;;;;;;5072478;28;20210;-67
2023/10/18 01:19:22;;;;;;;5.37;1.30;;;22.30;50.40;;;;;;5066781;28;20669;-67
2023/10/18 01:21:51;;;;;;;4.93;0.93;;;22.30;49.40;;;;;;5071363;28;20732;-67
2023/10/18 01:24:19;;;;;;;5.50;1.10;;;22.40;49.00;;;;;;5071316;28;20239;-66
2023/10/18 01:26:46;;;;;;;5.37;1.03;;;22.60;48.90;;;;;;5072225;28;20254;-67
2023/10/18 01:29:15;;;;;;;2.97;0.90;;;22.70;47.20;;;;;;5072245;28;20195;-67
2023/10/18 01:31:45;;;;;;;3.27;0.80;;;22.00;48.30;;;;;;5071779;28;20218;-67
2023/10/18 01:34:14;;;;;;;3.87;1.27;;;22.30;49.60;;;;;;5071592;28;20209;-68
2023/10/18 01:36:42;;;;;;;2.53;1.00;;;22.00;48.80;;;;;;5063954;28;20187;-68
2023/10/18 01:39:18;;;;;;;7.13;1.20;;;21.90;49.90;;;;;;5055443;28;20171;-71
2023/10/18 01:41:55;;;;;;;2.63;0.90;;;22.20;48.20;;;;;;5071917;28;20684;-68
2023/10/18 01:44:33;;;;;;;5.00;1.10;;;22.70;47.60;;;;;;5074058;28;20250;-70
2023/10/18 01:47:09;;;;;;;3.20;0.90;;;23.00;46.90;;;;;;5062089;28;20653;-69
2023/10/18 01:49:46;;;;;;;6.00;1.70;;;23.00;46.70;;;;;;5074816;28;20179;-67
2023/10/18 01:52:17;;;;;;;5.00;0.83;;;22.40;46.60;;;;;;5072110;28;20207;-68
2023/10/18 01:54:46;;;;;;;3.30;0.90;;;22.20;46.90;;;;;;5071855;28;20221;-68
2023/10/18 01:57:13;;;;;;;2.07;0.80;;;22.00;47.90;;;;;;5072939;28;20187;-70
2023/10/18 01:59:40;;;;;;;4.07;1.00;;;22.00;48.10;;;;;;5074098;28;20175;-66
2023/10/18 02:02:10;;;;;;;6.47;1.10;;;21.80;47.70;;;;;;5062235;28;20183;-67
2023/10/18 02:04:41;;;;;;;6.47;1.23;;;21.30;47.90;;;;;;5071553;28;20186;-68
2023/10/18 02:07:09;;;;;;;2.63;1.17;;;22.30;47.50;;;;;;5070537;28;20194;-67
2023/10/18 02:09:44;;;;;;;5.80;1.10;;;22.90;45.40;;;;;;5064785;28;20626;-68
2023/10/18 02:12:12;;;;;;;9.17;1.00;;;23.20;44.80;;;;;;5073493;28;20214;-66
2023/10/18 02:14:39;;;;;;;2.70;1.10;;;22.40;45.00;;;;;;5074866;28;20179;-67
2023/10/18 02:17:09;;;;;;;3.27;1.00;;;22.30;45.70;;;;;;5072643;28;20699;-67
2023/10/18 02:19:37;;;;;;;3.60;1.20;;;22.40;45.80;;;;;;5056089;28;20234;-67
2023/10/18 02:22:08;;;;;;;3.97;1.00;;;22.50;46.20;;;;;;5074504;28;20218;-67
2023/10/18 02:24:36;;;;;;;3.37;0.83;;;22.70;46.00;;;;;;5074763;28;20175;-67
2023/10/18 02:27:04;;;;;;;4.60;1.20;;;22.40;46.80;;;;;;5069124;28;20179;-67
2023/10/18 02:29:34;;;;;;;4.27;1.00;;;22.40;46.20;;;;;;5069565;28;20203;-68
2023/10/18 02:34:49;;;;;;;4.23;1.30;;;23.20;45.00;;;;;;5074569;28;20186;-70
2023/10/18 02:37:19;;;;;;;3.30;0.87;;;22.90;44.80;;;;;;5073612;28;20175;-68
2023/10/18 02:39:49;;;;;;;3.87;1.07;;;23.40;43.90;;;;;;5073865;28;20179;-69
2023/10/18 02:42:18;;;;;;;4.23;1.00;;;23.00;45.50;;;;;;5074218;28;20207;-67
2023/10/18 02:44:45;;;;;;;3.67;0.90;;;22.90;45.70;;;;;;5072838;28;20710;-68
2023/10/18 02:47:22;;;;;;;6.43;0.83;;;22.90;44.80;;;;;;5070431;28;20629;-67
2023/10/18 02:49:51;;;;;;;1.57;0.80;;;23.00;44.30;;;;;;5072401;28;20203;-67
2023/10/18 02:52:19;;;;;;;2.13;0.93;;;22.30;45.40;;;;;;5071424;28;20270;-67
2023/10/18 02:54:51;;;;;;;4.77;0.97;;;22.00;45.80;;;;;;5072776;28;20587;-67
2023/10/18 02:57:18;;;;;;;4.20;0.90;;;22.30;46.90;;;;;;5071455;28;20184;-66
2023/10/18 02:59:45;;;;;;;3.13;0.93;;;23.10;44.60;;;;;;5073497;28;20182;-66
2023/10/18 03:02:22;;;;;;;2.80;1.03;;;23.50;44.10;;;;;;5072787;28;20518;-70
2023/10/18 03:04:49;;;;;;;1.57;0.70;;;23.60;42.00;;;;;;5071089;28;20232;-67
2023/10/18 03:07:17;;;;;;;3.30;0.90;;;23.30;43.40;;;;;;5073122;28;20168;-66
2023/10/18 03:09:49;;;;;;;4.40;1.00;;;23.70;42.40;;;;;;5073843;28;20207;-69
2023/10/18 03:12:17;;;;;;;9.00;0.90;;;23.90;42.20;;;;;;5073353;28;20253;-68
2023/10/18 03:14:57;;;;;;;2.47;0.93;;;23.30;42.40;;;;;;5073607;28;20191;-68
2023/10/18 03:17:28;;;;;;;2.67;0.77;;;23.90;42.40;;;;;;5073860;28;20217;-68
2023/10/18 03:19:57;;;;;;;1.57;0.67;;;24.30;40.30;;;;;;5073347;28;20324;-66
2023/10/18 03:22:31;;;;;;;3.30;1.10;;;24.30;41.90;;;;;;5073365;28;20230;-67
2023/10/18 03:25:01;;;;;;;3.20;0.97;;;24.80;40.30;;;;;;5068343;28;20656;-69
2023/10/18 03:27:33;;;;;;;3.63;1.03;;;24.40;41.10;;;;;;5073167;28;20202;-68
2023/10/18 03:30:58;;;;;;;2.47;0.83;;;24.00;41.20;;;;;;5071190;28;20257;-69
2023/10/18 03:33:00;;;;;;;2.63;0.87;;;24.20;42.00;;;;;;5065556;28;20199;-68
2023/10/18 03:35:31;;;;;;;2.20;0.83;;;24.20;41.10;;;;;;5073245;28;20213;-68
2023/10/18 03:38:03;;;;;;;2.00;0.90;;;25.10;40.20;;;;;;5073045;28;20208;-67
2023/10/18 03:40:36;;;;;;;2.70;0.80;;;24.50;40.30;;;;;;5073527;28;20191;-70
2023/10/18 03:43:09;;;;;;;1.90;0.70;;;24.70;40.50;;;;;;5073255;28;20175;-67
2023/10/18 03:48:54;;;;;;;5.37;0.93;;;24.40;41.40;;;;;;5016967;28;20188;-68
2023/10/18 03:51:24;;;;;;;2.60;0.80;;;24.30;41.00;;;;;;5016336;28;20223;-68
2023/10/18 03:53:55;;;;;;;3.80;0.73;;;23.40;42.00;;;;;;5047649;28;20534;-67
2023/10/18 03:56:23;;;;;;;2.27;0.93;;;23.80;42.20;;;;;;5049990;28;20175;-67
2023/10/18 03:59:00;;;;;;;5.30;0.87;;;23.40;43.20;;;;;;5072362;28;20175;-69
2023/10/18 04:01:39;;;;;;;4.83;0.90;;;23.20;44.10;;;;;;5072401;28;20240;-70
2023/10/18 04:04:08;;;;;;;3.10;1.20;;;24.10;41.90;;;;;;5053055;28;20194;-70
2023/10/18 04:06:36;;;;;;;2.27;0.70;;;24.50;40.70;;;;;;5070549;28;20183;-67
2023/10/18 04:09:16;;;;;;;4.10;0.97;;;24.90;40.70;;;;;;5072784;28;20214;-68
2023/10/18 04:11:43;;;;;;;3.43;1.00;;;24.20;41.00;;;;;;5070435;28;20219;-68
2023/10/18 04:14:16;;;;;;;6.93;0.93;;;23.20;43.80;;;;;;5064265;28;20197;-67
2023/10/18 04:16:43;;;;;;;2.87;0.57;;;23.50;43.60;;;;;;5073040;28;20179;-67
2023/10/18 04:19:11;;;;;;;3.40;0.80;;;24.70;41.60;;;;;;5072573;28;20175;-69
2023/10/18 04:21:40;;;;;;;3.63;0.87;;;24.00;41.70;;;;;;5070092;28;20583;-66
2023/10/18 04:24:08;;;;;;;4.00;1.30;;;22.90;44.50;;;;;;5070271;28;20183;-67
2023/10/18 04:26:36;;;;;;;1.87;0.80;;;23.00;44.70;;;;;;5071443;28;20237;-70
2023/10/18 04:29:10;;;;;;;5.53;1.20;;;22.60;45.10;;;;;;5072840;28;20163;-68
2023/10/18 04:31:37;;;;;;;3.47;1.00;;;22.10;46.70;;;;;;5072006;28;20542;-68
2023/10/18 04:34:05;;;;;;;3.10;0.70;;;22.00;46.20;;;;;;5071815;28;20225;-68
2023/10/18 04:36:33;;;;;;;4.77;1.10;;;22.00;46.40;;;;;;5070708;28;20179;-67
2023/10/18 04:39:05;;;;;;;4.50;1.00;;;22.80;45.50;;;;;;5072326;28;20661;-68
2023/10/18 04:41:33;;;;;;;4.77;1.00;;;23.00;44.70;;;;;;5063320;28;20190;-70
2023/10/18 04:44:05;;;;;;;5.57;0.97;;;24.00;43.10;;;;;;5072059;28;20262;-71
2023/10/18 04:46:35;;;;;;;5.80;1.00;;;24.90;41.90;;;;;;5065524;28;20215;-69
2023/10/18 04:54:11;;;;;;;4.00;0.73;;;25.30;39.60;;;;;;5068904;28;20637;-68
2023/10/18 04:56:39;;;;;;;3.73;0.93;;;24.70;41.00;;;;;;5071219;28;20553;-69
2023/10/18 05:02:05;;;;;;;3.70;1.20;;;24.60;40.90;;;;;;5072160;28;20183;-67
2023/10/18 05:04:32;;;;;;;2.77;1.20;;;23.80;42.70;;;;;;5072357;28;20202;-69
2023/10/18 05:09:43;;;;;;;3.40;1.00;;;25.30;39.90;;;;;;5072074;28;20520;-67
2023/10/18 05:17:30;;;;;;;2.70;1.20;;;26.60;38.00;;;;;;5061070;28;20183;-67
2023/10/18 05:19:57;;;;;;;2.57;1.00;;;26.50;37.40;;;;;;5072521;28;20183;-67
2023/10/18 05:22:25;;;;;;;3.97;1.10;;;26.30;38.30;;;;;;5074194;28;20584;-67
2023/10/18 05:25:15;;;;;;;2.13;0.83;;;25.00;40.50;;;;;;5068968;28;20236;-67
2023/10/18 05:27:46;;;;;;;5.13;1.00;;;25.30;39.40;;;;;;5075302;28;20171;-68
2023/10/18 05:30:25;;;;;;;4.70;0.93;;;24.90;40.50;;;;;;5074088;28;20179;-67
2023/10/18 05:35:35;;;;;;;4.00;1.07;;;25.50;39.20;;;;;;5074983;28;20175;-67
2023/10/18 05:43:50;;;;;;;2.87;0.97;;;27.50;36.10;;;;;;5073788;28;20187;-68
2023/10/18 05:46:03;;;;;;;4.20;0.83;;;26.90;36.50;;;;;;5041539;28;20665;-67
2023/10/18 05:48:32;;;;;;;2.73;0.97;;;26.70;36.70;;;;;;5053606;28;20258;-68
2023/10/18 05:51:05;;;;;;;6.33;1.20;;;26.90;36.90;;;;;;5068981;28;20215;-67
2023/10/18 05:53:32;;;;;;;3.53;0.90;;;26.70;36.70;;;;;;5072922;28;20175;-68
2023/10/18 05:56:00;;;;;;;3.77;1.03;;;26.30;37.00;;;;;;5074873;28;20186;-67
2023/10/18 05:58:27;;;;;;;7.07;1.20;;;26.10;36.90;;;;;;5074058;28;20678;-69
2023/10/18 06:00:58;;;;;;;3.07;0.80;;;26.50;36.70;;;;;;5073410;28;20190;-68
2023/10/18 06:03:25;;;;;;;6.53;0.93;;;25.50;38.10;;;;;;5075097;28;20232;-68
2023/10/18 06:05:57;;;;;;;4.60;0.97;;;24.40;40.80;;;;;;5073813;28;20245;-67
2023/10/18 06:08:25;;;;;;;2.87;0.83;;;23.90;41.50;;;;;;5071770;28;20610;-67
2023/10/18 06:11:07;;;;;;;4.67;0.73;;;23.50;42.70;;;;;;5068219;28;20203;-68
2023/10/18 06:13:40;;;;;;;2.87;0.97;;;23.00;44.40;;;;;;5073075;28;20186;-67
2023/10/18 06:16:20;;;;;;;4.97;1.03;;;23.30;43.30;;;;;;5070037;28;20179;-69
2023/10/18 06:18:49;;;;;;;5.47;1.37;;;23.00;43.20;;;;;;5072563;28;20245;-68
2023/10/18 06:21:19;;;;;;;2.87;0.93;;;23.40;42.80;;;;;;5074304;28;20194;-70
2023/10/18 06:23:57;;;;;;;2.10;0.97;;;24.00;41.20;;;;;;5073164;28;20645;-69
2023/10/18 06:26:33;;;;;;;4.70;0.80;;;24.80;40.80;;;;;;5069498;28;20186;-73
2023/10/18 06:29:02;;;;;;;6.53;1.00;;;25.60;38.40;;;;;;5074485;28;20194;-73
2023/10/18 06:31:39;;;;;;;2.97;0.80;;;25.30;39.70;;;;;;5074325;28;20271;-72
2023/10/18 06:34:15;;;;;;;4.07;0.80;;;24.60;40.50;;;;;;5065299;28;20517;-70
2023/10/18 06:36:43;;;;;;;3.33;1.07;;;24.60;40.20;;;;;;5073971;28;20531;-72
2023/10/18 06:39:34;;;;;;;3.53;0.90;;;23.20;43.00;;;;;;5072830;28;20186;-70
2023/10/18 06:42:06;;;;;;;3.43;0.90;;;23.90;42.30;;;;;;5067692;28;20209;-73
2023/10/18 06:44:34;;;;;;;4.43;1.00;;;24.80;41.10;;;;;;5071564;28;20284;-70
2023/10/18 06:47:06;;;;;;;3.10;0.90;;;25.40;39.80;;;;;;5068259;28;20191;-69
2023/10/18 06:49:33;;;;;;;4.13;0.87;;;24.30;42.30;;;;;;5069421;28;20210;-68
2023/10/18 06:52:04;;;;;;;3.53;0.80;;;24.50;41.60;;;;;;5072675;28;20600;-68
2023/10/18 06:54:31;;;;;;;2.87;0.83;;;24.30;41.60;;;;;;5073409;28;20186;-69
2023/10/18 06:57:15;;;;;;;3.60;0.90;;;24.10;41.40;;;;;;5072690;28;20179;-69
2023/10/18 06:59:50;;;;;;;4.43;1.10;;;24.90;39.80;;;;;;5068634;28;20228;-69
2023/10/18 07:02:26;;;;;;;4.13;0.93;;;24.80;40.10;;;;;;5071141;28;20206;-68
2023/10/18 07:04:56;;;;;;;3.40;0.83;;;24.00;41.50;;;;;;5057986;28;20210;-67
2023/10/18 07:07:26;;;;;;;2.20;1.03;;;23.80;43.50;;;;;;5065299;28;20201;-68
2023/10/18 07:09:56;;;;;;;3.53;0.87;;;23.80;42.60;;;;;;5072738;28;20313;-68
2023/10/18 07:12:26;;;;;;;3.50;1.07;;;23.30;44.60;;;;;;5067830;28;20563;-68
2023/10/18 07:14:56;;;;;;;4.20;0.97;;;23.10;45.00;;;;;;5070802;28;20225;-67
2023/10/18 07:17:30;;;;;;;5.63;1.20;;;22.80;46.60;;;;;;5055206;28;20217;-72
2023/10/18 07:19:57;;;;;;;2.20;0.80;;;23.30;46.20;;;;;;5073050;28;20184;-68
2023/10/18 07:22:44;;;;;;;4.30;1.00;;;23.40;45.20;;;;;;5072671;28;20681;-70
2023/10/18 07:25:21;;;;;;;5.57;1.17;;;23.50;44.40;;;;;;5072299;28;20187;-70
2023/10/18 07:27:50;;;;;;;5.07;1.33;;;22.30;47.30;;;;;;5066832;28;20235;-69
2023/10/18 07:30:17;;;;;;;5.53;1.30;;;22.10;47.40;;;;;;5071949;28;20183;-68
2023/10/18 07:32:47;;;;;;;3.57;1.20;;;21.00;50.50;;;;;;5071596;28;20194;-67
2023/10/18 07:35:36;;;;;;;3.23;0.93;;;21.00;51.10;;;;;;5070905;28;20318;-68
2023/10/18 07:38:02;;;;;;;4.27;1.23;;;20.50;52.40;;;;;;5069766;28;20214;-68
2023/10/18 07:40:41;;;;;;;4.27;1.10;;;20.00;54.40;;;;;;5071235;28;20572;-69
2023/10/18 07:43:15;;;;;;;4.93;0.90;;;19.60;56.00;;;;;;5056825;28;20182;-69
2023/10/18 07:45:47;;;;;;;6.03;1.17;;;19.30;56.20;;;;;;5073063;28;20257;-66
2023/10/18 07:48:16;;;;;;;4.10;1.37;;;19.00;57.40;;;;;;5072572;28;20175;-67
2023/10/18 07:50:49;;;;;;;5.07;1.00;;;18.70;58.20;;;;;;5070507;28;20206;-67
2023/10/18 07:53:27;;;;;;;5.93;1.03;;;18.50;58.50;;;;;;5070545;28;20176;-68
2023/10/18 07:55:56;;;;;;;7.13;1.30;;;18.70;58.70;;;;;;5071494;28;20252;-68
2023/10/18 07:58:25;;;;;;;3.93;1.10;;;18.60;59.00;;;;;;5070509;28;20205;-69
2023/10/18 08:03:30;;;;;;;4.53;1.23;;;18.30;60.00;;;;;;5070814;28;20179;-67
2023/10/18 08:06:06;;;;;;;4.67;1.30;;;18.40;60.30;;;;;;5070103;28;20187;-68
2023/10/18 08:08:41;;;;;;;3.67;1.30;;;18.50;59.50;;;;;;5071504;28;20229;-70
2023/10/18 08:11:12;;;;;;;4.80;1.60;;;18.30;60.20;;;;;;5072857;28;20575;-67
2023/10/18 08:13:45;;;;;;;4.50;1.10;;;18.00;61.20;;;;;;5051077;28;20178;-67
2023/10/18 08:16:27;;;;;;;3.93;1.10;;;18.00;61.50;;;;;;5072204;28;20217;-68
2023/10/18 08:18:57;;;;;;;6.13;1.40;;;18.00;61.60;;;;;;5069635;28;20189;-68
2023/10/18 08:21:28;;;;;;;5.40;1.50;;;17.90;61.30;;;;;;5072243;28;20218;-67
2023/10/18 08:24:07;;;;;;;5.93;1.40;;;18.00;61.40;;;;;;5070767;28;20210;-67
2023/10/18 08:26:46;;;;;;;6.07;1.20;;;17.90;61.80;;;;;;5071410;28;20187;-67
2023/10/18 08:29:15;;;;;;;6.03;1.67;;;17.80;62.30;;;;;;5068790;28;20766;-67
2023/10/18 08:32:06;;;;;;;6.03;1.97;;;17.80;63.10;;;;;;5071801;28;20656;-67
2023/10/18 08:34:31;;;;;;;4.63;1.50;;;17.80;63.30;;;;;;5070637;28;20201;-67
2023/10/18 08:37:01;;;;;;;5.37;1.63;;;17.80;63.10;;;;;;5066899;28;20241;-66
2023/10/18 08:39:29;;;;;;;5.37;1.40;;;17.80;63.50;;;;;;5068977;28;20182;-67
2023/10/18 08:42:17;;;;;;;6.63;2.37;;;17.80;63.60;;;;;;5069235;28;20569;-67
2023/10/18 08:44:45;;;;;;;6.37;3.67;;;17.70;64.10;;;;;;5071106;28;20508;-68
2023/10/18 08:47:14;;;;;;;17.83;9.93;;;17.60;64.60;;;;;;5068533;28;20183;-67
2023/10/18 08:49:53;;;;;;;9.23;3.57;;;17.70;64.10;;;;;;5069876;28;20171;-67
2023/10/18 08:52:28;;;;;;;7.83;2.03;;;17.60;64.40;;;;;;5071788;28;20210;-67
2023/10/18 08:54:56;;;;;;;5.77;1.93;;;17.50;64.90;;;;;;5072144;28;20224;-68
2023/10/18 08:57:37;;;;;;;4.60;1.50;;;17.50;65.20;;;;;;5073481;28;20661;-68
2023/10/18 09:02:57;;;;;;;6.27;1.63;;;17.50;65.10;;;;;;5044174;28;20207;-67
2023/10/18 09:05:26;;;;;;;6.30;1.53;;;17.30;65.60;;;;;;5074217;28;20634;-67
2023/10/18 09:07:54;;;;;;;13.90;2.23;;;17.30;65.40;;;;;;5071946;28;20240;-69
2023/10/18 09:15:54;;;;;;;4.90;1.83;;;17.30;65.90;;;;;;5073694;28;20186;-67
2023/10/18 09:18:23;;;;;;;5.70;1.80;;;17.30;65.90;;;;;;5074741;28;20728;-71
2023/10/18 09:20:55;;;;;;;8.03;1.80;;;17.30;66.20;;;;;;5069900;28;20187;-67
2023/10/18 09:23:30;;;;;;;5.33;1.90;;;17.30;66.00;;;;;;5054957;28;20314;-67
2023/10/18 09:26:10;;;;;;;6.00;1.90;;;17.20;66.00;;;;;;5069689;28;20197;-67
2023/10/18 09:28:41;;;;;;;4.87;1.50;;;17.30;66.60;;;;;;5073924;28;20189;-72
2023/10/18 09:31:19;;;;;;;8.60;2.10;;;17.30;66.80;;;;;;5058144;28;20251;-72
2023/10/18 09:33:49;;;;;;;7.43;1.77;;;17.30;66.40;;;;;;5069660;28;20572;-69
2023/10/18 09:36:23;;;;;;;10.47;1.90;;;17.30;66.30;;;;;;5059110;28;20175;-71
2023/10/18 09:38:52;;;;;;;5.37;1.97;;;17.20;66.70;;;;;;5074905;28;20178;-69
2023/10/18 09:41:21;;;;;;;6.03;1.37;;;17.20;66.20;;;;;;5073048;28;20174;-68
2023/10/18 09:43:49;;;;;;;5.73;1.97;;;17.20;66.80;;;;;;5075038;28;20504;-69
2023/10/18 09:46:18;;;;;;;7.10;1.73;;;17.20;67.00;;;;;;5075046;28;20181;-70
2023/10/18 09:48:46;;;;;;;5.07;2.10;;;17.10;67.10;;;;;;5075364;28;20183;-68
2023/10/18 09:51:26;;;;;;;9.20;2.03;;;17.10;67.00;;;;;;5071184;28;20222;-71
2023/10/18 09:53:55;;;;;;;5.00;1.90;;;17.10;67.10;;;;;;5074523;28;20192;-67
2023/10/18 09:56:27;;;;;;;6.43;1.80;;;17.10;67.50;;;;;;5074572;28;20548;-68
2023/10/18 09:59:16;;;;;;;4.20;1.80;;;17.00;67.10;;;;;;5072826;28;20690;-69
2023/10/18 10:04:20;;;;;;;7.40;1.50;;;17.00;67.40;;;;;;5074269;28;20183;-69
2023/10/18 10:06:55;;;;;;;5.97;2.27;;;17.00;67.70;;;;;;5073913;28;20268;-67
2023/10/18 10:09:29;;;;;;;9.67;1.93;;;17.00;68.00;;;;;;5073579;28;20210;-68
2023/10/18 10:11:58;;;;;;;6.83;1.90;;;16.90;67.90;;;;;;5073278;28;20615;-68
2023/10/18 10:14:29;;;;;;;9.23;2.23;;;17.00;68.00;;;;;;5075242;28;20210;-66
2023/10/18 10:17:15;;;;;;;9.13;1.80;;;16.90;68.10;;;;;;5079132;28;20644;-68
2023/10/18 10:19:56;;;;;;;8.47;1.60;;;16.90;68.20;;;;;;5072222;28;20183;-68
2023/10/18 10:22:25;;;;;;;7.30;1.83;;;16.80;68.70;;;;;;5073136;28;20232;-68
2023/10/18 10:25:11;;;;;;;10.10;2.00;;;16.80;68.80;;;;;;5073617;28;20183;-68
2023/10/18 10:32:53;;;;;;;6.20;1.77;;;16.80;68.60;;;;;;5072320;28;20255;-67
2023/10/18 10:35:27;;;;;;;7.30;2.00;;;16.80;69.10;;;;;;5072813;28;20640;-67
2023/10/18 10:38:19;;;;;;;5.30;1.53;;;16.70;68.90;;;;;;5061208;28;20927;-67
2023/10/18 10:40:49;;;;;;;5.43;1.63;;;16.70;69.10;;;;;;5074217;28;20719;-68
2023/10/18 10:43:19;;;;;;;6.20;1.60;;;16.80;69.10;;;;;;5070304;28;20235;-67
2023/10/18 10:45:54;;;;;;;6.43;1.63;;;16.70;69.20;;;;;;5065727;28;20265;-67
2023/10/18 10:51:24;;;;;;;7.03;1.40;;;16.70;69.70;;;;;;5071452;28;20291;-68
2023/10/18 10:53:58;;;;;;;5.03;1.77;;;16.60;69.70;;;;;;5072190;28;20203;-67
2023/10/18 10:56:48;;;;;;;5.97;1.37;;;16.60;69.60;;;;;;5070439;28;20261;-68
2023/10/18 10:59:19;;;;;;;8.50;1.60;;;16.50;70.20;;;;;;5073178;28;20186;-68
2023/10/18 11:02:07;;;;;;;6.77;1.90;;;16.60;70.10;;;;;;5068269;28;20265;-70
2023/10/18 11:04:57;;;;;;;5.17;2.00;;;16.50;70.40;;;;;;5063179;28;20194;-69
2023/10/18 11:07:27;;;;;;;5.63;1.80;;;16.50;70.70;;;;;;5071665;28;20184;-71
2023/10/18 11:10:17;;;;;;;4.10;2.00;;;16.40;70.50;;;;;;5054282;28;20747;-70
2023/10/18 11:12:45;;;;;;;7.20;2.10;;;16.40;70.80;;;;;;5069584;28;20198;-68
2023/10/18 11:15:20;;;;;;;6.28;2.45;;;16.40;71.00;;;;;;5069870;28;20430;-68
2023/10/18 11:17:48;;;;;;;7.00;2.67;;;16.40;71.40;;;;;;5065698;28;20209;-68
2023/10/18 11:20:19;;;;;;;7.53;2.83;;;16.30;71.30;;;;;;5070715;28;20190;-66
2023/10/18 11:22:50;;;;;;;8.27;2.60;;;16.30;71.80;;;;;;5063063;28;20249;-67
2023/10/18 11:25:30;;;;;;;7.17;2.70;;;16.30;72.00;;;;;;5072367;28;20191;-66
2023/10/18 11:28:18;;;;;;;8.70;2.73;;;16.30;72.00;;;;;;5072100;28;20178;-67
2023/10/18 11:30:46;;;;;;;10.47;2.40;;;16.30;72.40;;;;;;5066637;28;20209;-67
2023/10/18 11:33:18;;;;;;;8.83;2.43;;;16.30;72.50;;;;;;5053523;28;20644;-68
2023/10/18 11:35:56;;;;;;;5.27;2.00;;;16.30;72.80;;;;;;5086940;27;20909;-70
2023/10/18 11:38:23;;;;;;;6.53;2.20;;;16.30;72.90;;;;;;5069179;28;20183;-73
2023/10/18 11:40:52;;;;;;;7.53;2.13;;;16.40;72.90;;;;;;5061856;28;20640;-72
2023/10/18 11:43:28;;;;;;;8.47;1.67;;;16.40;73.20;;;;;;5073927;28;20179;-67
2023/10/18 11:46:06;;;;;;;5.60;1.80;;;16.40;73.00;;;;;;5083860;28;20230;-69
2023/10/18 11:48:40;;;;;;;7.90;1.90;;;16.40;73.40;;;;;;5083394;28;20174;-71
2023/10/18 11:51:08;;;;;;;9.53;2.30;;;16.40;73.40;;;;;;5075900;28;20574;-68
2023/10/18 11:53:39;;;;;;;4.77;1.57;;;16.40;73.40;;;;;;5081883;28;20190;-68
2023/10/18 11:56:09;;;;;;;7.20;2.17;;;16.40;73.50;;;;;;5083193;28;20527;-71
2023/10/18 11:58:37;;;;;;;11.33;2.10;;;16.40;73.50;;;;;;5089769;28;20273;-69
2023/10/18 12:01:18;;;;;;;7.40;1.80;;;16.40;73.80;;;;;;5073254;28;20599;-69
2023/10/18 12:03:48;;;;;;;5.87;2.10;;;16.40;73.90;;;;;;5075010;28;20541;-68
2023/10/18 12:06:20;;;;;;;8.27;2.73;;;16.50;74.10;;;;;;5090221;28;20175;-69
2023/10/18 12:09:07;;;;;;;8.13;2.90;;;16.50;74.10;;;;;;5087008;28;20189;-67
2023/10/18 12:11:35;;;;;;;6.63;2.20;;;16.40;74.30;;;;;;5059023;28;20199;-68
2023/10/18 12:14:04;;;;;;;6.30;2.63;;;16.40;74.40;;;;;;5084883;28;20686;-68
2023/10/18 12:16:32;;;;;;;8.47;2.50;;;16.40;74.40;;;;;;5082203;28;20292;-67
2023/10/18 12:19:00;;;;;;;6.70;2.50;;;16.50;74.80;;;;;;5084316;28;20186;-67
2023/10/18 12:21:30;;;;;;;8.97;2.27;;;16.50;75.10;;;;;;5078940;28;20190;-75
2023/10/18 12:23:58;;;;;;;6.53;1.93;;;16.60;74.90;;;;;;5066636;28;20186;-67
2023/10/18 12:26:25;;;;;;;7.63;2.67;;;16.70;75.10;;;;;;5060194;28;20187;-67
2023/10/18 12:28:55;;;;;;;9.93;2.60;;;16.70;74.90;;;;;;5073460;28;20195;-68
2023/10/18 12:31:28;;;;;;;5.90;2.50;;;16.70;74.80;;;;;;5079465;28;20183;-66
2023/10/18 12:34:02;;;;;;;6.07;2.37;;;16.70;74.60;;;;;;5082030;28;20244;-67
2023/10/18 12:36:33;;;;;;;7.63;2.77;;;16.80;74.60;;;;;;5082157;28;20544;-68
2023/10/18 12:39:00;;;;;;;8.53;3.07;;;16.70;74.60;;;;;;5077618;28;20189;-67
2023/10/18 12:41:39;;;;;;;8.40;2.20;;;16.60;74.70;;;;;;5070246;28;20193;-66
2023/10/18 12:44:18;;;;;;;11.37;2.57;;;16.60;74.70;;;;;;5081690;28;20236;-66
2023/10/18 12:46:50;;;;;;;5.40;2.30;;;16.60;74.80;;;;;;5052977;28;20182;-67
2023/10/18 12:49:22;;;;;;;7.90;2.27;;;16.50;75.10;;;;;;5053016;28;20221;-69
2023/10/18 12:52:00;;;;;;;7.23;2.37;;;16.40;75.20;;;;;;5074846;28;20190;-68
2023/10/18 12:54:33;;;;;;;6.90;2.33;;;16.30;75.40;;;;;;5064375;28;20683;-67
2023/10/18 12:57:14;;;;;;;6.77;1.90;;;16.40;75.60;;;;;;5057110;28;20191;-67
2023/10/18 13:00:00;;;;;;;8.57;2.47;;;16.40;75.70;;;;;;5054759;28;20233;-67
2023/10/18 13:05:14;;;;;;;4.53;2.17;;;16.50;75.90;;;;;;5050525;28;20729;-69
2023/10/18 13:07:44;;;;;;;7.77;2.20;;;16.60;75.70;;;;;;5054146;28;20210;-67
2023/10/18 13:10:13;;;;;;;8.17;2.63;;;16.50;75.40;;;;;;5053438;28;20198;-68
2023/10/18 13:12:53;;;;;;;5.00;2.13;;;16.30;75.50;;;;;;5055171;28;20182;-69
2023/10/18 13:15:24;;;;;;;5.97;2.27;;;16.20;75.50;;;;;;5053743;28;20257;-67
2023/10/18 13:17:51;;;;;;;7.43;2.67;;;16.00;75.90;;;;;;5054856;28;20237;-67
2023/10/18 13:20:24;;;;;;;5.07;2.27;;;16.00;76.40;;;;;;5051192;28;20668;-67
2023/10/18 13:23:18;;;;;;;7.20;2.40;;;16.10;76.60;;;;;;5053591;28;20189;-67
2023/10/18 13:25:52;;;;;;;8.73;2.53;;;16.10;76.40;;;;;;5047486;28;20186;-68
2023/10/18 13:31:22;;;;;;;8.57;2.50;;;16.10;76.70;;;;;;5033541;28;20728;-66
2023/10/18 13:33:53;;;;;;;6.00;2.27;;;16.10;76.80;;;;;;5051879;28;20229;-68
2023/10/18 13:36:24;;;;;;;8.23;2.63;;;16.20;76.40;;;;;;5054306;28;20273;-67
2023/10/18 13:38:53;;;;;;;5.87;2.30;;;16.10;76.50;;;;;;5054519;28;20194;-67
2023/10/18 13:41:20;;;;;;;10.10;2.67;;;16.10;76.70;;;;;;5051724;28;20179;-68
2023/10/18 13:43:48;;;;;;;10.13;2.30;;;16.20;76.80;;;;;;5064514;28;20193;-67
2023/10/18 13:46:23;;;;;;;5.20;2.20;;;16.10;76.40;;;;;;5069996;28;20284;-68
2023/10/18 13:48:50;;;;;;;6.43;2.50;;;16.10;76.90;;;;;;5088000;28;20194;-67
2023/10/18 13:51:21;;;;;;;4.60;2.30;;;16.10;76.80;;;;;;5062165;28;20186;-67
2023/10/18 13:53:51;;;;;;;5.07;2.27;;;16.00;76.60;;;;;;5056328;28;20178;-66
2023/10/18 13:56:21;;;;;;;8.07;2.60;;;16.00;76.80;;;;;;5057595;28;20206;-67
2023/10/18 13:58:48;;;;;;;8.47;2.60;;;16.00;77.00;;;;;;5073256;28;20174;-67
2023/10/18 14:01:22;;;;;;;8.93;2.20;;;16.00;76.60;;;;;;5067251;28;20172;-68
2023/10/18 14:03:51;;;;;;;11.30;2.93;;;16.00;76.50;;;;;;5065647;28;20759;-68
2023/10/18 14:06:18;;;;;;;6.00;2.33;;;16.00;77.00;;;;;;5058983;28;20193;-66
2023/10/18 14:08:47;;;;;;;10.10;2.90;;;16.00;76.90;;;;;;5068175;28;20187;-67